Time;durP1;ratioP1;P1;durP2;ratioP2;P2;SDS_P1;SDS_P2;PMS_P1;PMS_P2;Temp;Humidity;BMP_temperature;BMP_pressure;BME280_temperature;BME280_humidity;BME280_pressure;Samples;Min_cycle;Max_cycle;Signal;HPM_P1;HPM_P2
2023/11/20 00:01:23;;;;;;;2.38;1.17;;;9.90;99.90;;;;;;5002161;28;20030;-83
2023/11/20 00:03:50;;;;;;;2.45;1.08;;;9.90;99.90;;;;;;4997802;28;20081;-84
2023/11/20 00:06:16;;;;;;;1.85;0.98;;;9.80;99.90;;;;;;5000212;28;20046;-83
2023/11/20 00:08:41;;;;;;;1.92;1.20;;;9.80;99.90;;;;;;5000432;28;20022;-85
2023/11/20 00:11:07;;;;;;;1.90;1.15;;;9.80;99.90;;;;;;5000946;28;20037;-84
2023/11/20 00:13:32;;;;;;;2.25;1.00;;;9.80;99.90;;;;;;4999899;28;20038;-85
2023/11/20 00:15:57;;;;;;;2.65;1.30;;;9.80;99.90;;;;;;5016978;28;20066;-84
2023/11/20 00:18:23;;;;;;;2.42;1.15;;;9.80;99.90;;;;;;4998355;28;20057;-86
2023/11/20 00:20:49;;;;;;;1.73;1.10;;;9.80;99.90;;;;;;5020850;28;20034;-85
2023/11/20 00:23:14;;;;;;;2.42;1.30;;;9.90;99.90;;;;;;4995268;28;20026;-88
2023/11/20 00:25:40;;;;;;;3.97;1.70;;;9.90;99.90;;;;;;5009334;28;20087;-87
2023/11/20 00:28:05;;;;;;;2.08;1.10;;;9.90;99.90;;;;;;4993878;28;20034;-88
2023/11/20 00:30:31;;;;;;;2.97;1.30;;;9.90;99.90;;;;;;4990706;28;20049;-88
2023/11/20 00:32:56;;;;;;;4.20;1.50;;;9.90;99.90;;;;;;4988330;28;20390;-88
2023/11/20 00:35:22;;;;;;;1.67;1.15;;;9.90;99.90;;;;;;4989782;28;20030;-87
2023/11/20 00:37:47;;;;;;;2.85;1.33;;;9.90;99.90;;;;;;4992454;28;20030;-88
2023/11/20 00:40:13;;;;;;;2.88;1.58;;;9.90;99.90;;;;;;4989607;28;20104;-87
2023/11/20 00:42:39;;;;;;;3.00;1.02;;;9.90;99.90;;;;;;4992713;28;20082;-87
2023/11/20 00:45:05;;;;;;;2.15;1.30;;;9.80;99.90;;;;;;4991487;28;20026;-87
2023/11/20 00:47:30;;;;;;;2.47;1.10;;;9.80;99.90;;;;;;5005285;28;20034;-88
2023/11/20 00:49:55;;;;;;;2.33;1.15;;;9.90;99.90;;;;;;4991944;28;20037;-88
2023/11/20 00:52:21;;;;;;;4.50;1.50;;;9.90;99.90;;;;;;5005916;28;20033;-86
2023/11/20 00:54:46;;;;;;;2.65;1.10;;;9.90;99.90;;;;;;5007732;28;20382;-86
2023/11/20 00:57:12;;;;;;;3.38;1.30;;;9.90;99.90;;;;;;5007933;28;20111;-85
2023/11/20 00:59:38;;;;;;;1.83;1.08;;;9.90;99.90;;;;;;5008708;28;20096;-86
2023/11/20 01:02:03;;;;;;;1.67;1.05;;;9.90;99.90;;;;;;5009855;28;20333;-86
2023/11/20 01:04:29;;;;;;;2.10;1.30;;;9.80;99.90;;;;;;4996777;28;20037;-86
2023/11/20 01:06:54;;;;;;;2.50;1.15;;;9.80;99.90;;;;;;4997316;28;20125;-86
2023/11/20 01:09:20;;;;;;;1.55;0.98;;;9.80;99.90;;;;;;4996439;28;20037;-85
2023/11/20 01:11:46;;;;;;;2.00;1.27;;;9.80;99.90;;;;;;5010747;28;20034;-87
2023/11/20 01:14:12;;;;;;;3.55;1.27;;;9.80;99.90;;;;;;4994738;28;20021;-85
2023/11/20 01:16:38;;;;;;;2.63;1.40;;;9.80;99.90;;;;;;5009678;28;20050;-85
2023/11/20 01:19:03;;;;;;;1.88;1.00;;;9.80;99.90;;;;;;4993209;28;20537;-86
2023/11/20 01:21:29;;;;;;;2.50;1.00;;;9.80;99.90;;;;;;5012364;28;20050;-86
2023/11/20 01:23:54;;;;;;;1.55;0.90;;;9.80;99.90;;;;;;5011664;28;20117;-86
2023/11/20 01:26:19;;;;;;;4.50;1.60;;;9.80;99.90;;;;;;4995247;28;20490;-85
2023/11/20 01:28:46;;;;;;;2.55;1.25;;;9.80;99.90;;;;;;4993872;28;20054;-85
2023/11/20 01:31:12;;;;;;;2.67;1.27;;;9.80;99.90;;;;;;5012436;28;20021;-87
2023/11/20 01:33:37;;;;;;;2.22;1.40;;;9.80;99.90;;;;;;4999997;28;20402;-86
2023/11/20 01:36:03;;;;;;;3.50;1.50;;;9.80;99.90;;;;;;5016464;28;20493;-87
2023/11/20 01:38:28;;;;;;;3.65;1.48;;;9.80;99.90;;;;;;4997554;28;20132;-86
2023/11/20 01:40:54;;;;;;;3.70;1.60;;;9.80;99.90;;;;;;5012552;28;20112;-86
2023/11/20 01:43:20;;;;;;;2.42;1.25;;;9.80;99.90;;;;;;5010703;28;20182;-86
2023/11/20 01:45:47;;;;;;;2.60;1.10;;;9.80;99.90;;;;;;4993836;28;20025;-86
2023/11/20 01:48:13;;;;;;;1.98;1.15;;;9.70;99.90;;;;;;5016576;28;20063;-86
2023/11/20 01:50:38;;;;;;;2.13;1.20;;;9.70;99.90;;;;;;5012830;28;20108;-86
2023/11/20 01:53:05;;;;;;;2.13;1.20;;;9.70;99.90;;;;;;4996661;28;20076;-86
2023/11/20 01:55:32;;;;;;;3.00;1.65;;;9.70;99.90;;;;;;5012411;28;20101;-85
2023/11/20 01:57:58;;;;;;;2.15;1.10;;;9.70;99.90;;;;;;4993861;28;20058;-86
2023/11/20 02:00:26;;;;;;;2.50;1.20;;;9.70;99.90;;;;;;5015064;28;20058;-86
2023/11/20 02:02:52;;;;;;;2.30;1.23;;;9.70;99.90;;;;;;4987719;28;20125;-86
2023/11/20 02:05:19;;;;;;;2.40;1.17;;;9.70;99.90;;;;;;4991349;28;20064;-87
2023/11/20 02:07:44;;;;;;;1.63;1.00;;;9.70;99.90;;;;;;5011763;28;20398;-86
2023/11/20 02:10:10;;;;;;;2.25;1.38;;;9.70;99.90;;;;;;4989527;28;20062;-86
2023/11/20 02:12:36;;;;;;;2.75;1.40;;;9.70;99.90;;;;;;4997021;28;20428;-86
2023/11/20 02:15:02;;;;;;;3.20;1.10;;;9.70;99.90;;;;;;5012832;28;20018;-86
2023/11/20 02:17:28;;;;;;;2.20;1.13;;;9.70;99.90;;;;;;5009754;28;20095;-86
2023/11/20 02:19:53;;;;;;;2.22;1.10;;;9.80;99.90;;;;;;4992367;28;20589;-86
2023/11/20 02:22:19;;;;;;;3.05;1.60;;;9.70;99.90;;;;;;5013662;28;20030;-86
2023/11/20 02:24:46;;;;;;;1.92;1.00;;;9.70;99.90;;;;;;5009454;28;20029;-86
2023/11/20 02:27:35;;;;;;;2.58;1.13;;;9.80;99.90;;;;;;5012477;28;20026;-86
2023/11/20 02:30:03;;;;;;;3.25;1.40;;;9.80;99.90;;;;;;4994098;28;20113;-85
2023/11/20 02:32:29;;;;;;;3.15;0.93;;;9.80;99.90;;;;;;4989731;28;20097;-86
2023/11/20 02:34:55;;;;;;;3.25;1.23;;;9.80;99.90;;;;;;4994199;28;20022;-86
2023/11/20 02:37:20;;;;;;;2.78;1.50;;;9.80;99.90;;;;;;5007409;28;20099;-86
2023/11/20 02:39:49;;;;;;;3.90;1.60;;;9.80;99.90;;;;;;5008854;28;20195;-87
2023/11/20 02:42:24;;;;;;;3.78;1.48;;;9.80;99.90;;;;;;5006157;28;20089;-86
2023/11/20 02:44:50;;;;;;;2.33;1.15;;;9.90;99.90;;;;;;5009259;28;20125;-86
2023/11/20 02:47:16;;;;;;;3.60;1.60;;;9.80;99.90;;;;;;4990163;28;20534;-86
2023/11/20 02:49:42;;;;;;;2.97;1.48;;;9.80;99.90;;;;;;4986061;28;20074;-86
2023/11/20 02:52:08;;;;;;;2.40;1.15;;;9.80;99.90;;;;;;4998001;28;20319;-87
2023/11/20 02:54:35;;;;;;;3.33;1.30;;;9.90;99.90;;;;;;4992102;28;20026;-86
2023/11/20 02:57:01;;;;;;;1.70;1.10;;;9.90;99.90;;;;;;5014063;28;20022;-86
2023/11/20 02:59:28;;;;;;;3.08;1.42;;;9.90;99.90;;;;;;5010984;28;20045;-86
2023/11/20 03:01:54;;;;;;;2.20;1.30;;;9.80;99.90;;;;;;4979723;28;20030;-87
2023/11/20 03:04:20;;;;;;;2.25;1.30;;;9.90;99.90;;;;;;4986565;28;20026;-87
2023/11/20 03:06:46;;;;;;;2.22;1.08;;;9.90;99.90;;;;;;5007358;28;20102;-87
2023/11/20 03:09:12;;;;;;;3.17;1.40;;;9.90;99.90;;;;;;4992520;28;20033;-86
2023/11/20 03:11:38;;;;;;;3.58;1.33;;;9.90;99.90;;;;;;4982303;28;20092;-86
2023/11/20 03:14:04;;;;;;;2.33;1.10;;;9.90;99.90;;;;;;4985789;28;20426;-87
2023/11/20 03:16:30;;;;;;;2.80;1.20;;;9.80;99.90;;;;;;5009196;28;20037;-87
2023/11/20 03:18:57;;;;;;;5.20;1.83;;;9.80;99.90;;;;;;4991921;28;20041;-86
2023/11/20 03:21:24;;;;;;;3.22;1.35;;;9.80;99.90;;;;;;4982538;28;20124;-86
2023/11/20 03:23:49;;;;;;;3.08;1.27;;;9.90;99.90;;;;;;4982595;28;20030;-87
2023/11/20 03:26:21;;;;;;;3.83;1.58;;;9.90;99.90;;;;;;4991367;28;20033;-87
2023/11/20 03:28:47;;;;;;;1.85;1.05;;;9.90;99.90;;;;;;4987942;28;20124;-86
2023/11/20 03:31:12;;;;;;;3.03;1.40;;;9.90;99.90;;;;;;5011625;28;20076;-86
2023/11/20 03:33:38;;;;;;;3.75;1.35;;;9.80;99.90;;;;;;4991799;28;20132;-86
2023/11/20 03:36:04;;;;;;;2.95;1.50;;;9.90;99.90;;;;;;5006753;28;20032;-86
2023/11/20 03:38:29;;;;;;;2.45;1.10;;;9.90;99.90;;;;;;5014300;28;20113;-86
2023/11/20 03:40:55;;;;;;;2.00;1.23;;;9.90;99.90;;;;;;5009752;28;20109;-86
2023/11/20 03:43:21;;;;;;;2.97;1.50;;;9.90;99.90;;;;;;4993642;28;20505;-87
2023/11/20 03:45:47;;;;;;;3.00;1.52;;;9.90;99.90;;;;;;4994131;28;20089;-87
2023/11/20 03:48:13;;;;;;;2.92;1.30;;;9.90;99.90;;;;;;4983777;28;20021;-86
2023/11/20 03:50:38;;;;;;;5.22;1.88;;;9.90;99.90;;;;;;4998865;28;20105;-86
2023/11/20 03:53:04;;;;;;;4.38;2.00;;;9.80;99.90;;;;;;4992224;28;20097;-86
2023/11/20 03:55:29;;;;;;;3.63;1.60;;;9.90;99.90;;;;;;4991856;28;20027;-86
2023/11/20 03:57:54;;;;;;;5.05;2.13;;;9.80;99.90;;;;;;4996585;28;20030;-87
2023/11/20 04:00:20;;;;;;;4.03;1.92;;;9.90;99.90;;;;;;4990440;28;20042;-86
2023/11/20 04:02:46;;;;;;;5.38;2.00;;;9.80;99.90;;;;;;4992462;28;20390;-86
2023/11/20 04:05:11;;;;;;;4.50;2.03;;;9.80;99.90;;;;;;5008169;28;20034;-86
2023/11/20 04:07:37;;;;;;;5.85;2.17;;;9.80;99.90;;;;;;5009806;28;20026;-86
2023/11/20 04:10:04;;;;;;;4.80;1.98;;;9.80;99.90;;;;;;4991513;28;20049;-86
2023/11/20 04:12:30;;;;;;;4.57;1.90;;;9.80;99.90;;;;;;5004524;28;20018;-86
2023/11/20 04:14:56;;;;;;;5.57;2.55;;;9.80;99.90;;;;;;4990281;28;20137;-87
2023/11/20 04:17:21;;;;;;;4.70;2.00;;;9.80;99.90;;;;;;5004672;28;20034;-86
2023/11/20 04:19:47;;;;;;;5.75;1.92;;;9.80;99.90;;;;;;5005241;28;20772;-86
2023/11/20 04:22:12;;;;;;;4.93;2.10;;;9.70;99.90;;;;;;4984235;28;20125;-86
2023/11/20 04:24:38;;;;;;;4.80;2.03;;;9.70;99.90;;;;;;5009067;28;20084;-86
2023/11/20 04:27:04;;;;;;;6.00;1.80;;;9.70;99.90;;;;;;4987792;28;20030;-87
2023/11/20 04:29:30;;;;;;;5.35;2.05;;;9.70;99.90;;;;;;5004278;28;20042;-87
2023/11/20 04:31:55;;;;;;;4.80;1.77;;;9.70;99.90;;;;;;4986639;28;20025;-86
2023/11/20 04:34:21;;;;;;;5.18;2.17;;;9.70;99.90;;;;;;5012412;28;20057;-86
2023/11/20 04:36:46;;;;;;;5.28;1.98;;;9.70;99.90;;;;;;5021450;28;20121;-87
2023/11/20 04:39:12;;;;;;;5.28;1.80;;;9.70;99.90;;;;;;5017133;28;20026;-87
2023/11/20 04:41:39;;;;;;;5.72;1.65;;;9.70;99.90;;;;;;5001587;28;20017;-86
2023/11/20 04:44:04;;;;;;;4.85;1.85;;;9.60;99.90;;;;;;5013947;28;20043;-86
2023/11/20 04:46:30;;;;;;;6.40;2.10;;;9.70;99.90;;;;;;4993273;28;20034;-87
2023/11/20 04:48:55;;;;;;;4.78;1.63;;;9.70;99.90;;;;;;4992302;28;20220;-87
2023/11/20 04:51:22;;;;;;;4.80;1.67;;;9.70;99.90;;;;;;5010477;28;20045;-86
2023/11/20 04:53:50;;;;;;;4.32;1.88;;;9.70;99.90;;;;;;5011113;28;20412;-87
2023/11/20 04:56:16;;;;;;;6.22;2.33;;;9.70;99.90;;;;;;4996001;28;20018;-87
2023/11/20 04:58:44;;;;;;;5.25;1.85;;;9.70;99.90;;;;;;4990271;28;20029;-86
2023/11/20 05:01:11;;;;;;;5.38;1.70;;;9.70;99.90;;;;;;5006507;28;20130;-87
2023/11/20 05:03:37;;;;;;;3.15;1.45;;;9.70;99.90;;;;;;5006873;28;20078;-87
2023/11/20 05:06:06;;;;;;;4.05;1.65;;;9.70;99.90;;;;;;4989859;28;20045;-87
2023/11/20 05:08:31;;;;;;;7.10;2.13;;;9.70;99.90;;;;;;5010695;28;20068;-88
2023/11/20 05:10:57;;;;;;;5.93;2.22;;;9.70;99.90;;;;;;5013092;28;20363;-87
2023/11/20 05:13:22;;;;;;;4.63;1.73;;;9.70;99.90;;;;;;4999739;28;20026;-87
2023/11/20 05:15:48;;;;;;;4.43;1.73;;;9.70;99.90;;;;;;5008746;28;20049;-87
2023/11/20 05:18:13;;;;;;;4.10;1.65;;;9.70;99.90;;;;;;5005248;28;20492;-87
2023/11/20 05:20:39;;;;;;;4.40;2.00;;;9.70;99.90;;;;;;4987127;28;20061;-87
2023/11/20 05:23:04;;;;;;;3.85;1.50;;;9.70;99.90;;;;;;5010772;28;20052;-87
2023/11/20 05:25:30;;;;;;;5.22;2.08;;;9.70;99.90;;;;;;5004720;28;20065;-87
2023/11/20 05:27:55;;;;;;;6.18;2.53;;;9.70;99.90;;;;;;4989768;28;20122;-89
2023/11/20 05:30:22;;;;;;;5.75;2.03;;;9.70;99.90;;;;;;5004747;28;20038;-88
2023/11/20 05:32:48;;;;;;;4.95;2.05;;;9.70;99.90;;;;;;4993907;28;20044;-89
2023/11/20 05:35:13;;;;;;;3.90;1.85;;;9.70;99.90;;;;;;5012156;28;20033;-88
2023/11/20 05:37:39;;;;;;;4.93;1.75;;;9.70;99.90;;;;;;4995190;28;20022;-89
2023/11/20 05:40:06;;;;;;;5.18;1.92;;;9.70;99.90;;;;;;4987340;28;20025;-88
2023/11/20 05:42:32;;;;;;;5.25;1.98;;;9.70;99.90;;;;;;4995436;28;20037;-88
2023/11/20 05:44:58;;;;;;;6.72;2.28;;;9.70;99.90;;;;;;5016870;28;20109;-87
2023/11/20 05:47:23;;;;;;;5.50;2.20;;;9.70;99.90;;;;;;4986689;28;20034;-89
2023/11/20 05:49:51;;;;;;;6.10;2.47;;;9.70;99.90;;;;;;5010512;28;20172;-87
2023/11/20 05:52:17;;;;;;;6.47;2.80;;;9.70;99.90;;;;;;5007261;28;20093;-88
2023/11/20 05:54:43;;;;;;;7.47;2.50;;;9.70;99.90;;;;;;4998331;28;20038;-89
2023/11/20 05:57:09;;;;;;;5.70;2.08;;;9.70;99.90;;;;;;4987000;28;20044;-88
2023/11/20 05:59:34;;;;;;;7.32;2.75;;;9.70;99.90;;;;;;4993513;28;20128;-89
2023/11/20 06:02:00;;;;;;;5.18;2.22;;;9.70;99.90;;;;;;5013832;28;20051;-89
2023/11/20 06:04:26;;;;;;;5.95;2.53;;;9.60;99.90;;;;;;5002725;28;20436;-89
2023/11/20 06:06:53;;;;;;;6.70;2.83;;;9.60;99.90;;;;;;5019315;28;20065;-88
2023/11/20 06:09:19;;;;;;;4.88;2.13;;;9.60;99.90;;;;;;5000651;28;20036;-87
2023/11/20 06:11:49;;;;;;;6.90;2.25;;;9.60;99.90;;;;;;5017969;28;20033;-87
2023/11/20 06:14:17;;;;;;;7.50;2.55;;;9.70;99.90;;;;;;5040963;23;20048;-77
2023/11/20 06:16:45;;;;;;;6.00;2.60;;;9.60;99.90;;;;;;4966818;28;20083;-79
2023/11/20 06:19:11;;;;;;;6.38;2.72;;;9.60;99.90;;;;;;4992592;28;20026;-79
2023/11/20 06:21:47;;;;;;;7.95;2.60;;;9.60;99.90;;;;;;4990189;28;20541;-79
2023/11/20 06:24:14;;;;;;;6.18;2.05;;;9.60;99.90;;;;;;4974165;28;20387;-79
2023/11/20 06:26:41;;;;;;;7.78;2.65;;;9.60;99.90;;;;;;4991509;28;20045;-78
2023/11/20 06:29:06;;;;;;;10.00;2.47;;;9.60;99.90;;;;;;4981333;28;20037;-80
2023/11/20 06:31:32;;;;;;;6.50;2.60;;;9.60;99.90;;;;;;4995309;28;20427;-80
2023/11/20 06:33:57;;;;;;;7.97;2.75;;;9.60;99.90;;;;;;4982487;28;20114;-79
2023/11/20 06:36:23;;;;;;;4.70;2.10;;;9.60;99.90;;;;;;4986867;28;20554;-76
2023/11/20 06:38:48;;;;;;;7.45;2.05;;;9.60;99.90;;;;;;4986709;28;20030;-78
2023/11/20 06:41:21;;;;;;;6.50;2.42;;;9.60;99.90;;;;;;4986953;28;20109;-78
2023/11/20 06:43:47;;;;;;;6.25;2.58;;;9.60;99.90;;;;;;4978680;28;20105;-77
2023/11/20 06:46:23;;;;;;;7.63;2.40;;;9.60;99.90;;;;;;4991230;28;20088;-76
2023/11/20 06:48:49;;;;;;;6.60;2.63;;;9.60;99.90;;;;;;4985813;28;20543;-79
2023/11/20 06:51:17;;;;;;;6.32;2.20;;;9.50;99.90;;;;;;4984328;28;20187;-77
2023/11/20 06:53:43;;;;;;;5.75;2.13;;;9.50;99.90;;;;;;4988697;28;20395;-76
2023/11/20 06:56:16;;;;;;;5.22;1.73;;;9.40;99.90;;;;;;4989622;28;20034;-76
2023/11/20 06:58:41;;;;;;;5.57;2.58;;;9.40;99.90;;;;;;4988035;28;20054;-77
2023/11/20 07:01:08;;;;;;;7.07;2.65;;;9.40;99.90;;;;;;4984524;28;20091;-76
2023/11/20 07:03:33;;;;;;;8.75;2.60;;;9.40;99.90;;;;;;4975495;28;20546;-76
2023/11/20 07:05:59;;;;;;;8.98;3.25;;;9.40;99.90;;;;;;4979279;28;20064;-75
2023/11/20 07:08:26;;;;;;;7.95;2.92;;;9.40;99.90;;;;;;4980044;28;20022;-76
2023/11/20 07:10:52;;;;;;;6.90;2.28;;;9.50;99.90;;;;;;4984942;28;20053;-78
2023/11/20 07:13:18;;;;;;;5.47;2.13;;;9.40;99.90;;;;;;4986453;28;20483;-78
2023/11/20 07:15:43;;;;;;;7.75;2.70;;;9.40;99.90;;;;;;4987921;28;20100;-78
2023/11/20 07:18:09;;;;;;;5.47;1.95;;;9.40;99.90;;;;;;4992574;28;20467;-79
2023/11/20 07:20:35;;;;;;;8.80;3.22;;;9.30;99.90;;;;;;4993505;28;20034;-78
2023/11/20 07:23:03;;;;;;;8.40;2.60;;;9.40;99.90;;;;;;4987497;28;20022;-78
2023/11/20 07:25:33;;;;;;;8.65;2.90;;;9.40;99.90;;;;;;4966982;28;20113;-78
2023/11/20 07:28:02;;;;;;;12.68;4.32;;;9.50;99.90;;;;;;4982482;28;20057;-79
2023/11/20 07:30:32;;;;;;;8.35;3.42;;;9.50;99.90;;;;;;4986995;28;20472;-78
2023/11/20 07:32:57;;;;;;;9.88;3.45;;;9.50;99.90;;;;;;4985272;28;20485;-78
2023/11/20 07:35:23;;;;;;;6.35;2.75;;;9.60;99.90;;;;;;4983282;28;20307;-78
2023/11/20 07:37:48;;;;;;;9.02;2.90;;;9.60;99.90;;;;;;4967870;28;20134;-78
2023/11/20 07:40:15;;;;;;;8.20;2.40;;;9.60;99.90;;;;;;4989656;28;20030;-79
2023/11/20 07:42:41;;;;;;;8.80;2.78;;;9.70;99.90;;;;;;4991136;28;20084;-78
2023/11/20 07:45:08;;;;;;;11.80;3.28;;;9.70;99.90;;;;;;4990257;28;20042;-78
2023/11/20 07:47:34;;;;;;;8.32;2.92;;;9.70;99.90;;;;;;4984030;28;20038;-79
2023/11/20 07:49:59;;;;;;;6.50;2.65;;;9.70;99.90;;;;;;4972299;28;20035;-79
2023/11/20 07:52:25;;;;;;;7.32;2.95;;;9.80;99.90;;;;;;4989046;28;20038;-78
2023/11/20 07:54:51;;;;;;;7.03;2.47;;;9.80;99.90;;;;;;4990671;28;20042;-78
2023/11/20 07:57:21;;;;;;;7.32;3.15;;;9.90;99.90;;;;;;4966743;28;20197;-78
2023/11/20 07:59:48;;;;;;;7.32;2.95;;;9.90;99.90;;;;;;4987817;28;20034;-79
2023/11/20 08:02:13;;;;;;;9.00;3.30;;;10.00;99.90;;;;;;4969945;28;20115;-78
2023/11/20 08:04:39;;;;;;;10.75;3.60;;;10.10;99.90;;;;;;4984139;28;20175;-78
2023/11/20 08:07:04;;;;;;;8.73;2.67;;;10.10;99.90;;;;;;4988874;28;20041;-79
2023/11/20 08:09:30;;;;;;;8.48;3.38;;;10.10;99.90;;;;;;4985338;28;20046;-79
2023/11/20 08:11:55;;;;;;;7.80;2.67;;;10.10;99.90;;;;;;4987680;28;20026;-78
2023/11/20 08:14:21;;;;;;;7.05;2.50;;;10.10;99.90;;;;;;4984199;28;20117;-79
2023/11/20 08:16:49;;;;;;;6.40;2.92;;;10.10;99.90;;;;;;4987476;28;20169;-79
2023/11/20 08:19:15;;;;;;;6.57;2.45;;;10.10;99.90;;;;;;4989517;28;20086;-79
2023/11/20 08:21:41;;;;;;;6.60;2.20;;;10.10;99.90;;;;;;4991061;28;20027;-79
2023/11/20 08:24:07;;;;;;;6.10;2.38;;;10.10;99.90;;;;;;4987043;28;20391;-79
2023/11/20 08:26:33;;;;;;;6.43;2.40;;;10.10;99.90;;;;;;4983487;28;20041;-79
2023/11/20 08:28:59;;;;;;;5.28;2.30;;;10.20;99.90;;;;;;4984308;28;20494;-79
2023/11/20 08:31:25;;;;;;;7.55;2.40;;;10.30;99.90;;;;;;4983634;28;20030;-79
2023/11/20 08:33:51;;;;;;;5.82;1.90;;;10.20;99.90;;;;;;4983976;28;20027;-78
2023/11/20 08:36:16;;;;;;;4.75;1.95;;;10.30;99.90;;;;;;4986434;28;20115;-79
2023/11/20 08:38:41;;;;;;;8.20;2.33;;;10.30;99.90;;;;;;4989124;28;20552;-78
2023/11/20 08:41:08;;;;;;;3.63;1.70;;;10.30;99.90;;;;;;4977157;28;20034;-79
2023/11/20 08:43:34;;;;;;;6.55;2.10;;;10.30;99.90;;;;;;4982918;28;20030;-79
2023/11/20 08:45:59;;;;;;;6.43;2.35;;;10.30;99.90;;;;;;4981998;28;20077;-79
2023/11/20 08:48:25;;;;;;;5.50;2.20;;;10.40;99.90;;;;;;4988350;28;20139;-79
2023/11/20 08:50:51;;;;;;;7.00;2.25;;;10.40;99.90;;;;;;4988973;28;20042;-79
2023/11/20 08:53:17;;;;;;;4.85;2.15;;;10.50;99.90;;;;;;4983310;28;20118;-79
2023/11/20 08:55:42;;;;;;;7.72;2.83;;;10.50;99.90;;;;;;4987715;28;20038;-79
2023/11/20 08:58:08;;;;;;;6.65;2.63;;;10.50;99.90;;;;;;4988372;28;20047;-79
2023/11/20 09:00:37;;;;;;;5.68;2.22;;;10.40;99.90;;;;;;4970915;28;20070;-79
2023/11/20 09:03:02;;;;;;;7.65;2.83;;;10.40;99.90;;;;;;4985049;28;20109;-79
2023/11/20 09:05:28;;;;;;;6.10;2.10;;;10.50;99.90;;;;;;4983317;28;20106;-79
2023/11/20 09:07:54;;;;;;;5.95;2.58;;;10.50;99.90;;;;;;4967775;28;20511;-79
2023/11/20 09:10:23;;;;;;;7.38;2.45;;;10.50;99.90;;;;;;4985988;28;20037;-79
2023/11/20 09:12:48;;;;;;;6.38;2.67;;;10.60;99.90;;;;;;4986464;28;20041;-79
2023/11/20 09:15:14;;;;;;;7.15;2.65;;;10.60;99.90;;;;;;4984678;28;20055;-79
2023/11/20 09:17:39;;;;;;;6.63;2.70;;;10.50;99.90;;;;;;4978688;28;20053;-79
2023/11/20 09:20:06;;;;;;;5.25;2.08;;;10.40;99.90;;;;;;4988833;28;20038;-79
2023/11/20 09:22:31;;;;;;;7.60;2.45;;;10.40;99.90;;;;;;4991645;28;20042;-79
2023/11/20 09:24:57;;;;;;;5.82;2.10;;;10.40;99.90;;;;;;4995191;28;20057;-79
2023/11/20 09:27:23;;;;;;;6.13;2.55;;;10.30;99.90;;;;;;4998745;28;20034;-79
2023/11/20 09:29:49;;;;;;;6.85;2.30;;;10.40;99.90;;;;;;4985861;28;20030;-79
2023/11/20 09:32:15;;;;;;;6.72;2.28;;;10.40;99.90;;;;;;4988282;28;20078;-79
2023/11/20 09:34:40;;;;;;;3.80;1.77;;;10.40;99.90;;;;;;4995301;28;20554;-79
2023/11/20 09:37:06;;;;;;;3.88;1.90;;;10.40;99.90;;;;;;4991489;28;20038;-79
2023/11/20 09:39:32;;;;;;;2.75;1.42;;;10.30;99.90;;;;;;4992144;28;20085;-79
2023/11/20 09:41:59;;;;;;;2.83;1.35;;;10.30;99.90;;;;;;4972602;28;20027;-79
2023/11/20 09:44:27;;;;;;;4.07;1.40;;;10.30;99.90;;;;;;4987172;28;20365;-79
2023/11/20 09:46:52;;;;;;;3.05;1.50;;;10.30;99.90;;;;;;4981804;28;20023;-78
2023/11/20 09:49:28;;;;;;;3.20;1.20;;;10.30;99.90;;;;;;4991756;28;20042;-78
2023/11/20 09:51:56;;;;;;;4.00;1.80;;;10.20;99.90;;;;;;4995393;28;20034;-78
2023/11/20 09:54:24;;;;;;;5.03;1.70;;;10.30;99.90;;;;;;4993111;28;20031;-78
2023/11/20 09:56:50;;;;;;;4.05;1.02;;;10.30;99.90;;;;;;4987737;28;20031;-78
2023/11/20 09:59:16;;;;;;;4.30;1.48;;;10.30;99.90;;;;;;4990654;28;20041;-78
2023/11/20 10:01:43;;;;;;;3.00;1.40;;;10.20;99.90;;;;;;4981363;28;20063;-78
2023/11/20 10:04:08;;;;;;;3.80;1.35;;;10.20;99.90;;;;;;4992025;28;20022;-78
2023/11/20 10:06:35;;;;;;;3.30;1.38;;;10.30;99.90;;;;;;4991706;28;20041;-78
2023/11/20 10:09:03;;;;;;;3.13;1.20;;;10.20;99.90;;;;;;4991560;28;20093;-78
2023/11/20 10:11:33;;;;;;;3.08;0.95;;;10.10;99.90;;;;;;4988602;28;20040;-78
2023/11/20 10:13:58;;;;;;;2.47;1.13;;;10.10;99.90;;;;;;4981616;28;20088;-78
2023/11/20 10:16:24;;;;;;;2.83;0.93;;;10.00;99.90;;;;;;4969614;28;20058;-78
2023/11/20 10:18:51;;;;;;;3.05;1.25;;;10.10;99.90;;;;;;4945455;28;20047;-78
2023/11/20 10:21:19;;;;;;;2.63;1.23;;;10.10;99.90;;;;;;4984304;28;20073;-78
2023/11/20 10:23:44;;;;;;;1.45;0.63;;;10.10;99.90;;;;;;4993553;28;20038;-78
2023/11/20 10:26:10;;;;;;;0.75;0.50;;;10.00;99.90;;;;;;4983910;28;20037;-78
2023/11/20 10:28:40;;;;;;;0.75;0.45;;;10.10;99.90;;;;;;4991378;28;20042;-78
2023/11/20 10:31:05;;;;;;;0.75;0.55;;;10.00;99.90;;;;;;4987590;28;20044;-78
2023/11/20 10:33:31;;;;;;;1.52;0.70;;;10.00;99.90;;;;;;4972853;28;20120;-78
2023/11/20 10:36:11;;;;;;;1.30;0.60;;;10.10;99.90;;;;;;4987271;28;20034;-78
2023/11/20 10:38:36;;;;;;;0.75;0.50;;;10.10;99.90;;;;;;4966827;28;20387;-78
2023/11/20 10:41:03;;;;;;;0.75;0.40;;;10.10;99.90;;;;;;4983541;28;20038;-78
2023/11/20 10:43:30;;;;;;;1.33;0.63;;;10.10;99.90;;;;;;4983547;28;20034;-78
2023/11/20 10:45:56;;;;;;;1.17;0.47;;;10.10;99.90;;;;;;4982632;28;20038;-78
2023/11/20 10:48:22;;;;;;;1.42;0.47;;;10.10;99.90;;;;;;4981436;28;20023;-78
2023/11/20 10:50:49;;;;;;;1.60;0.80;;;10.10;99.90;;;;;;4982421;28;20058;-78
2023/11/20 10:53:17;;;;;;;1.20;0.80;;;10.10;99.90;;;;;;4992380;28;20492;-78
2023/11/20 10:55:50;;;;;;;1.27;0.57;;;10.10;99.90;;;;;;4982675;28;20039;-78
2023/11/20 10:58:15;;;;;;;1.45;0.70;;;10.20;99.90;;;;;;4968479;28;20026;-78
2023/11/20 11:00:41;;;;;;;1.75;0.75;;;10.20;99.90;;;;;;4993041;28;20030;-78
2023/11/20 11:03:11;;;;;;;1.55;0.80;;;10.20;99.90;;;;;;4995984;28;20105;-78
2023/11/20 11:05:39;;;;;;;2.10;0.90;;;10.20;99.90;;;;;;4988401;28;20558;-78
2023/11/20 11:08:09;;;;;;;2.45;1.05;;;10.30;99.90;;;;;;4999759;28;20062;-78
2023/11/20 11:10:40;;;;;;;2.10;1.10;;;10.30;99.90;;;;;;4989187;28;20553;-78
2023/11/20 11:13:07;;;;;;;0.82;0.50;;;10.30;99.90;;;;;;4989350;28;20030;-78
2023/11/20 11:15:32;;;;;;;1.75;0.75;;;10.30;99.90;;;;;;4990837;28;20430;-78
2023/11/20 11:18:04;;;;;;;1.55;0.65;;;10.20;99.90;;;;;;4987414;28;20026;-78
2023/11/20 11:20:38;;;;;;;0.77;0.47;;;10.20;99.90;;;;;;4980160;28;20542;-78
2023/11/20 11:23:08;;;;;;;1.00;0.50;;;10.20;99.90;;;;;;4983495;28;20463;-78
2023/11/20 11:25:38;;;;;;;2.20;0.40;;;10.20;99.90;;;;;;4978241;28;20030;-78
2023/11/20 11:28:07;;;;;;;1.15;0.50;;;10.10;99.90;;;;;;4989265;28;20052;-78
2023/11/20 11:30:37;;;;;;;1.23;0.47;;;10.10;99.90;;;;;;4986900;28;20037;-78
2023/11/20 11:33:24;;;;;;;0.80;0.35;;;10.10;99.90;;;;;;4981779;28;20454;-78
2023/11/20 11:36:14;;;;;;;1.08;0.60;;;10.10;99.90;;;;;;4991743;28;20105;-79
2023/11/20 11:39:08;;;;;;;0.80;0.30;;;10.20;99.90;;;;;;4986706;28;20465;-79
2023/11/20 11:41:33;;;;;;;0.47;0.30;;;10.20;99.90;;;;;;4986382;28;20042;-78
2023/11/20 11:44:10;;;;;;;0.40;0.20;;;10.20;99.90;;;;;;4978320;28;20022;-78
2023/11/20 11:46:36;;;;;;;0.40;0.30;;;10.20;99.90;;;;;;4982304;28;20125;-79
2023/11/20 11:49:20;;;;;;;0.55;0.30;;;10.10;99.90;;;;;;4991560;28;20113;-79
2023/11/20 11:51:51;;;;;;;0.20;0.20;;;10.20;99.90;;;;;;4983147;28;20033;-79
2023/11/20 11:54:18;;;;;;;0.40;0.30;;;10.10;99.90;;;;;;4981583;28;20038;-79
2023/11/20 11:56:49;;;;;;;0.35;0.30;;;10.10;99.90;;;;;;4980350;28;20026;-79
2023/11/20 11:59:26;;;;;;;0.30;0.20;;;10.10;99.90;;;;;;4982081;28;20042;-82
2023/11/20 12:01:52;;;;;;;0.20;0.20;;;10.00;99.90;;;;;;4988542;28;20094;-75
2023/11/20 12:04:48;;;;;;;0.38;0.30;;;10.10;99.90;;;;;;4988918;28;20160;-76
2023/11/20 12:07:14;;;;;;;0.32;0.30;;;10.00;99.90;;;;;;4988584;28;20026;-74
2023/11/20 12:09:56;;;;;;;0.30;0.30;;;10.00;99.90;;;;;;4980611;28;20041;-79
2023/11/20 12:12:50;;;;;;;1.25;0.60;;;10.00;99.90;;;;;;4974301;28;20061;-78
2023/11/20 12:15:33;;;;;;;0.55;0.40;;;10.00;99.90;;;;;;4970757;28;20053;-76
2023/11/20 12:18:05;;;;;;;0.40;0.40;;;10.10;99.90;;;;;;4971509;28;20019;-77
2023/11/20 12:20:33;;;;;;;0.20;0.20;;;10.10;99.90;;;;;;4980535;28;20031;-75
2023/11/20 12:23:06;;;;;;;0.65;0.43;;;10.10;99.90;;;;;;4983617;28;20366;-77
2023/11/20 12:25:33;;;;;;;0.40;0.40;;;10.10;99.90;;;;;;4991283;28;20121;-75
2023/11/20 12:27:59;;;;;;;0.60;0.40;;;10.10;99.90;;;;;;4983758;28;20035;-76
2023/11/20 12:30:26;;;;;;;0.65;0.50;;;10.20;99.90;;;;;;4987657;28;20047;-76
2023/11/20 12:32:51;;;;;;;0.55;0.55;;;10.20;99.90;;;;;;4983654;28;20041;-75
2023/11/20 12:35:17;;;;;;;0.40;0.40;;;10.20;99.90;;;;;;4985581;28;20042;-75
2023/11/20 12:37:42;;;;;;;0.30;0.30;;;10.20;99.90;;;;;;4989360;28;20070;-75
2023/11/20 12:40:11;;;;;;;1.38;0.30;;;10.20;99.90;;;;;;4988396;28;20035;-76
2023/11/20 12:42:37;;;;;;;0.45;0.35;;;10.20;99.90;;;;;;4988053;28;20046;-76
2023/11/20 12:45:03;;;;;;;0.60;0.35;;;10.20;99.90;;;;;;4987250;28;20066;-75
2023/11/20 12:47:29;;;;;;;2.20;0.28;;;10.20;99.90;;;;;;4983558;28;20034;-74
2023/11/20 12:49:56;;;;;;;0.50;0.35;;;10.20;99.90;;;;;;4984880;28;20042;-74
2023/11/20 12:52:22;;;;;;;2.33;0.40;;;10.30;99.90;;;;;;4968582;28;20109;-74